Timeline UpdatesTrip UpdatesNews PostsPvt PostsTravel TipsAdmin PostsConv PostsFollowed PostsChat RequestsBlog PostsPNR Posts

Disclaimer
Search
 
 
Thu Apr 17, 2014 00:28:50 ISTHomeTrainsΣChainsAtlasPNRForumGalleryNewsFAQTripsMembersLoginFeedback
No Recent News for this Train
Other Trains in the News **new
Latest...
Temporary Augmentation of 1 GS coach from 1/2/14-28/3/14 #982250
Sun Feb 02, 2014 (02:24PM)
⇐ Return Journey: Train# 15708

15707/Amrapali Express

Feb 22 2014 (1:18PM)
Change Departure Station:
Change Arrival Station:
Post a Train Travel TipPost a Train Travel Tip **new
Post a Comment/Question/Picture/VideoPost a Comment/Question/Picture/Video
Pantry/Catering
✕ NO Pantry Car
✕ NO Catering
RSA - Rake Sharing
Rake/Coach Composition
Loco«SLR-GN-GN-GN-GN-A1-B1-S1-S2-S3-S4-S5-S6-S7-S8-S9-GN-GN-GN-GN-GN-SLR= 22 Coach Train. S1 becomes S9 in DN train.
Loco
SGUJ WDP 4 from KIR-LKO, CNB WAP 4 from...
Read more...
LKO-ASR.
News    PNR    Forum    Time-Table    Availability    Fare Chart    Map    Arr/Dep History    Trips    Gallery    ΣChains    X/O    Timeline    
Travel Time: 13h 39m    19 halts    Distance: 783 km    Avg Speed: 57 km/hr
Type: Mail/Express
Zone: NFR/Northeast Frontier
Departs @ 20:00 (Avg 41m late)
Platform# 6
SMTWTFS
Kanpur Central/CNB 
Arrives @ 09:39 +1 night (Avg 1h 37m late)
Platform# 2
SMTWTFS
Phagwara Junction/PGW 

19 halts. 121 intermediate Stations between Kanpur Central and Phagwara Junction

Show ALL intermediate Stations  Show Old Time-Table

#CodeStation NameX/OArrivesAvgDepartsAvgHaltPFDay#KmSpeedElevZoneAddress
1KIRKatihar Junction (7)  -23:30+011-915.56435mNFR854105., Bihar
2CRRKaragola Road  23:51+1823:52+191m--1-893.26836mECRLachhmipur, Bihar
3KUEKursela  00:07+2400:08+271m--2-876.26531mECRNH 31, Bihar
4NNANaugachia  00:25+3500:26+371m--2-857.76037mECRBhagalpur, Bihar
5THBThana Bihpur Junction  00:42+3800:43+391m--2-841.86339mECRThana Bihpur, Bihar
6MNEMansi Junction (3)X  01:23+4001:24+411m--2-799.82843mECR06244-233234, Bihar
7KGGKhagaria Junction (3)  01:43+3301:44+371m--2-791.05243mECR06244-223596, Bihar
8BGSBegu Sarai (2)X  02:30+2702:31+281m--2-751.121 ECR06243-222853, Bihar
9BJUBarauni Junction (9)X  03:10+1803:20+1910m72-737.653 ECRBegusarai, Bihar
10SPJSamastipur Junction (9)XO  04:17+2404:22+245m--2-687.15855mECRSamastipur, Bihar
11KRBPKhudiram B PusaX  04:36+3004:37+321m--2-673.46252mECRDistt. Samastipur, Bihar
12DOLDholi (2)  04:50+3304:51+351m--2-660.14252mECRDistt. Muzaffarpur, Bihar
13MFPMuzaffarpur Junction (6)X  05:27+3605:37+3510m32-634.94557mECRMuzaffarpur, Bihar
14HJPHajipur Junction (3)  06:49+3006:50+361m--2-581.13355mECR06224-272230, Bihar
15SEESonpur Junction (4)  07:00+3707:10+3310m32-575.63656mECRSaran, Bihar
16CPRChhapra Junction (6)X  08:40+1808:50+2010m32-521.67358mNERDistt: Saran, Bihar
17SVSiwan Junction (4)X  09:40+2409:45+255m--2-460.35370mNERSiwan, Bihar
18DEOSDeoria Sadar (3)  11:04+2311:05+281m--2-390.94279mNERDeoria- 274001, Uttar Pradesh
19GKPGorakhpur Junction (10)X  12:15+3212:35+3220m52-341.75584mNERGorakhpur 273001, Uttar Pradesh
20KLDKhalilabad (3)X  13:12+3813:13+391m12-307.86686mNERKhalilabad- 272175, Uttar Pradesh
21BSTBasti (4)X  13:40+4413:45+445m12-278.37490mNERBasti 272001, Uttar Pradesh
22MURMankapur Junction (5)X14:34+2714:36+292m--2-217.770104mNERDistrict Gonda, Uttar Pradesh
23GDGonda Junction (3)  15:00+4115:05+415m12-189.845110mNERGonda 271001, Uttar Pradesh
24BBKBarabanki Junction (4)  17:03+1917:05+232m--2-100.538122mNRPin-225001, Uttar Pradesh
25LKOLucknow Charbagh (9)X  17:50+3018:25+2535m42-72.065123mNRCharbagh, Uttar Pradesh
26ONUnnao Junction (5)X  19:15+2919:16+301m--2-17.431129mNRUnnao, Uttar Pradesh
27CNB»Kanpur Central (10)»X  19:50+3920:00+4110m620.086128mNCRKanpur, Uttar Pradesh
28ETWEtawah (5)X  21:37+1:0821:38+1:111m22139.487154mNCRDistt. Etawah, Uttar Pradesh
29FZDFirozabad (4)X  22:30+1:1622:31+1:191m32214.625164mNCRFirozabad, Uttar Pradesh
30TDLTundla Junction (4)X  23:10+1:0323:15+1:035m22231.290167mNCRDistt.Firozabad, Uttar Pradesh
31HRSHathras Junction (3)X  23:47+1:1723:48+1:181m--2279.167183mNCRMahamaya Nagar(05722-242803), Uttar Pradesh
32ALJNAligarh Junction (4)X  00:15+1:2100:20+1:215m33309.387192mNCRAligarh, Uttar Pradesh
33KRJKhurja Junction (4)X00:50+1:1000:52+1:092m--3352.852199mNCRBulandshahr, Uttar Pradesh
34GZBGhaziabad Junction (6)  02:05+1:0502:07+1:052m33415.545217mNRGhaziabad, Uttar Pradesh
35DSAShahdara Junction (4)  02:25+1:1502:26+1:161m--3429.116212mNRCircular Rd, Delhi NCT
36DLIOld Delhi Junction (16)  02:50+1:1503:25+1:0635m103435.456219mNRNear Chandni Chowk Metro Station, Delhi NCT
37SNPSonipat (3)X  04:12+1:1604:13+1:181m--3479.371225mNRSonipat, Haryana
38PNPPanipat Junction (5)X  04:51+1:2104:53+1:212m33524.576235mNRPanipat, Haryana
39KUNKarnal (3)  05:20+1:2105:21+1:221m23558.964253mNRKarnal, Haryana
40KKDEKurukshetra Junction (3)  05:52+1:1605:54+1:162m--3592.045260mNRKurukshetra, Haryana
41UMBAmbala Cantt. Junction (7)  06:50+1:1007:00+1:1010m73634.067278mNRAmbala 133001, Haryana
42RPJRajpura Junction (3)07:25+1:1307:27+1:132m13662.193272mNRNH-1, Punjab
43SIRSirhind Junction (3)X  07:43+1:1607:45+1:162m13686.977271mNRSirhind, Punjab
44KNNKhanna (3)  07:59+1:1608:00+1:181m13704.957269mNRNH 1, Punjab
45LDHLudhiana Junction (7)XO  08:45+1:2608:55+1:4110m23747.733246mNRLudhiana 141001, Punjab
46PHRPhillaur Junction (3)X  09:19+1:3509:20+1:361m23760.771246mNRPhillaur, Punjab
47PGW•Phagwara Junction (3)•X  09:39+1:3709:40+1:391m23783.385245mNRPhagwara, Punjab
48JUCJalandhar City Junction (5)XO  09:55+1:4810:05+1:4610m13804.545239mNRJalandhar 144001, Punjab
49BEASBeas Junction (2)  10:53+1:3210:54+1:341m13840.627238mNRBeas, Punjab
50ASRAmritsar Junction (5)  12:30+51-33883.6-233mNRAmritsar 143002, Punjab
Scroll to Top
Scroll to Bottom